Terminal Aerodrome Forecast
Issued by NWS

Home | Current Version | Previous Version | Text Only | Print | Product List | Glossary On
Versions: 1 2 3 4 5 6 7 8 9 10 11 12 13 14 15 16 17 18
000
FTUS42 KMLB 161734
TAFISM
TAF
KISM 161734Z 1618/1718 11007KT P6SM SCT060 SCT250
     FM170100 10004KT P6SM SCT250
     FM170800 00000KT 2SM BR SCT002
      TEMPO 1709/1713 3/4SM BR BKN002
     FM171300 14006KT P6SM SCT035=

USA.gov is the U.S. government's official web portal to all federal, state and local government web resources and services.